sensor_id;sensor_type;location;lat;lon;timestamp;P1;durP1;ratioP1;P2;durP2;ratioP2
29280;SDS011;25048;49.590;11.026;2023-05-24T00:01:00;11.13;;;2.73;;
29280;SDS011;25048;49.590;11.026;2023-05-24T00:03:28;6.70;;;2.80;;
29280;SDS011;25048;49.590;11.026;2023-05-24T00:05:55;11.83;;;3.17;;
29280;SDS011;25048;49.590;11.026;2023-05-24T00:08:23;12.13;;;3.30;;
29280;SDS011;25048;49.590;11.026;2023-05-24T00:10:50;12.60;;;3.00;;
29280;SDS011;25048;49.590;11.026;2023-05-24T00:13:18;9.47;;;2.70;;
29280;SDS011;25048;49.590;11.026;2023-05-24T00:15:45;8.23;;;2.70;;
29280;SDS011;25048;49.590;11.026;2023-05-24T00:18:13;10.73;;;4.13;;
29280;SDS011;25048;49.590;11.026;2023-05-24T00:20:42;13.60;;;3.70;;
29280;SDS011;25048;49.590;11.026;2023-05-24T00:23:10;9.93;;;2.90;;
29280;SDS011;25048;49.590;11.026;2023-05-24T00:25:38;9.00;;;2.90;;
29280;SDS011;25048;49.590;11.026;2023-05-24T00:28:05;10.13;;;4.00;;
29280;SDS011;25048;49.590;11.026;2023-05-24T00:30:33;13.37;;;3.50;;
29280;SDS011;25048;49.590;11.026;2023-05-24T00:33:01;8.00;;;3.30;;
29280;SDS011;25048;49.590;11.026;2023-05-24T00:35:28;13.57;;;4.43;;
29280;SDS011;25048;49.590;11.026;2023-05-24T00:37:56;9.93;;;3.13;;
29280;SDS011;25048;49.590;11.026;2023-05-24T00:40:23;10.90;;;3.57;;
29280;SDS011;25048;49.590;11.026;2023-05-24T00:42:51;12.43;;;3.60;;
29280;SDS011;25048;49.590;11.026;2023-05-24T00:45:18;10.97;;;3.97;;
29280;SDS011;25048;49.590;11.026;2023-05-24T00:47:46;11.87;;;3.50;;
29280;SDS011;25048;49.590;11.026;2023-05-24T00:50:14;6.57;;;3.13;;
29280;SDS011;25048;49.590;11.026;2023-05-24T00:52:41;8.90;;;3.33;;
29280;SDS011;25048;49.590;11.026;2023-05-24T00:55:10;8.07;;;3.20;;
29280;SDS011;25048;49.590;11.026;2023-05-24T00:57:38;12.23;;;3.67;;
29280;SDS011;25048;49.590;11.026;2023-05-24T01:00:06;6.83;;;3.30;;
29280;SDS011;25048;49.590;11.026;2023-05-24T01:02:35;5.57;;;3.30;;
29280;SDS011;25048;49.590;11.026;2023-05-24T01:05:03;7.27;;;3.50;;
29280;SDS011;25048;49.590;11.026;2023-05-24T01:07:40;12.00;;;4.73;;
29280;SDS011;25048;49.590;11.026;2023-05-24T01:15:58;9.83;;;3.60;;
29280;SDS011;25048;49.590;11.026;2023-05-24T01:18:30;6.17;;;3.63;;
29280;SDS011;25048;49.590;11.026;2023-05-24T01:24:04;9.70;;;3.53;;
29280;SDS011;25048;49.590;11.026;2023-05-24T01:26:36;8.07;;;4.10;;
29280;SDS011;25048;49.590;11.026;2023-05-24T01:29:04;12.30;;;3.23;;
29280;SDS011;25048;49.590;11.026;2023-05-24T01:31:33;8.57;;;3.97;;
29280;SDS011;25048;49.590;11.026;2023-05-24T01:34:02;8.00;;;3.40;;
29280;SDS011;25048;49.590;11.026;2023-05-24T01:36:29;8.83;;;4.10;;
29280;SDS011;25048;49.590;11.026;2023-05-24T01:38:57;8.23;;;3.43;;
29280;SDS011;25048;49.590;11.026;2023-05-24T01:47:00;13.30;;;3.60;;
29280;SDS011;25048;49.590;11.026;2023-05-24T01:49:30;8.37;;;3.27;;
29280;SDS011;25048;49.590;11.026;2023-05-24T01:52:04;15.07;;;4.67;;
29280;SDS011;25048;49.590;11.026;2023-05-24T01:54:38;7.63;;;3.83;;
29280;SDS011;25048;49.590;11.026;2023-05-24T01:57:04;12.37;;;3.40;;
29280;SDS011;25048;49.590;11.026;2023-05-24T01:59:33;12.57;;;3.33;;
29280;SDS011;25048;49.590;11.026;2023-05-24T02:02:01;10.30;;;3.07;;
29280;SDS011;25048;49.590;11.026;2023-05-24T02:04:29;11.37;;;3.30;;
29280;SDS011;25048;49.590;11.026;2023-05-24T02:06:57;10.40;;;3.53;;
29280;SDS011;25048;49.590;11.026;2023-05-24T02:09:24;10.17;;;3.27;;
29280;SDS011;25048;49.590;11.026;2023-05-24T02:11:52;13.80;;;3.43;;
29280;SDS011;25048;49.590;11.026;2023-05-24T02:14:19;10.27;;;3.70;;
29280;SDS011;25048;49.590;11.026;2023-05-24T02:16:47;8.73;;;3.50;;
29280;SDS011;25048;49.590;11.026;2023-05-24T02:19:15;7.60;;;3.20;;
29280;SDS011;25048;49.590;11.026;2023-05-24T02:21:43;13.63;;;3.97;;
29280;SDS011;25048;49.590;11.026;2023-05-24T02:24:10;7.70;;;3.23;;
29280;SDS011;25048;49.590;11.026;2023-05-24T02:26:38;7.57;;;3.70;;
29280;SDS011;25048;49.590;11.026;2023-05-24T02:29:05;8.23;;;3.23;;
29280;SDS011;25048;49.590;11.026;2023-05-24T02:31:33;13.93;;;4.00;;
29280;SDS011;25048;49.590;11.026;2023-05-24T02:34:00;13.37;;;3.97;;
29280;SDS011;25048;49.590;11.026;2023-05-24T02:36:28;9.07;;;3.40;;
29280;SDS011;25048;49.590;11.026;2023-05-24T02:38:57;11.90;;;3.53;;
29280;SDS011;25048;49.590;11.026;2023-05-24T02:41:24;7.03;;;3.03;;
29280;SDS011;25048;49.590;11.026;2023-05-24T02:43:52;10.57;;;3.83;;
29280;SDS011;25048;49.590;11.026;2023-05-24T02:46:19;13.50;;;3.90;;
29280;SDS011;25048;49.590;11.026;2023-05-24T02:48:47;7.47;;;3.67;;
29280;SDS011;25048;49.590;11.026;2023-05-24T02:51:14;10.50;;;3.70;;
29280;SDS011;25048;49.590;11.026;2023-05-24T02:53:42;11.87;;;3.80;;
29280;SDS011;25048;49.590;11.026;2023-05-24T02:56:10;9.20;;;3.57;;
29280;SDS011;25048;49.590;11.026;2023-05-24T02:58:38;9.53;;;3.83;;
29280;SDS011;25048;49.590;11.026;2023-05-24T03:01:06;11.23;;;3.80;;
29280;SDS011;25048;49.590;11.026;2023-05-24T03:03:34;15.50;;;4.30;;
29280;SDS011;25048;49.590;11.026;2023-05-24T03:06:01;12.97;;;3.63;;
29280;SDS011;25048;49.590;11.026;2023-05-24T03:08:29;11.93;;;4.17;;
29280;SDS011;25048;49.590;11.026;2023-05-24T03:10:56;11.20;;;4.03;;
29280;SDS011;25048;49.590;11.026;2023-05-24T03:13:24;13.37;;;4.40;;
29280;SDS011;25048;49.590;11.026;2023-05-24T03:15:51;10.23;;;3.70;;
29280;SDS011;25048;49.590;11.026;2023-05-24T03:18:19;11.70;;;4.10;;
29280;SDS011;25048;49.590;11.026;2023-05-24T03:20:46;12.93;;;3.67;;
29280;SDS011;25048;49.590;11.026;2023-05-24T03:23:14;9.93;;;3.93;;
29280;SDS011;25048;49.590;11.026;2023-05-24T03:25:41;6.17;;;3.60;;
29280;SDS011;25048;49.590;11.026;2023-05-24T03:28:09;9.03;;;4.10;;
29280;SDS011;25048;49.590;11.026;2023-05-24T03:30:38;5.27;;;3.53;;
29280;SDS011;25048;49.590;11.026;2023-05-24T03:33:06;14.80;;;4.23;;
29280;SDS011;25048;49.590;11.026;2023-05-24T03:35:33;8.97;;;4.00;;
29280;SDS011;25048;49.590;11.026;2023-05-24T03:38:01;9.17;;;4.20;;
29280;SDS011;25048;49.590;11.026;2023-05-24T03:40:28;9.73;;;3.77;;
29280;SDS011;25048;49.590;11.026;2023-05-24T03:42:58;10.27;;;3.77;;
29280;SDS011;25048;49.590;11.026;2023-05-24T03:45:25;9.17;;;3.63;;
29280;SDS011;25048;49.590;11.026;2023-05-24T03:47:53;14.63;;;3.93;;
29280;SDS011;25048;49.590;11.026;2023-05-24T03:50:20;11.40;;;3.73;;
29280;SDS011;25048;49.590;11.026;2023-05-24T03:52:48;10.73;;;3.90;;
29280;SDS011;25048;49.590;11.026;2023-05-24T03:55:15;11.83;;;4.00;;
29280;SDS011;25048;49.590;11.026;2023-05-24T03:57:43;13.97;;;5.07;;
29280;SDS011;25048;49.590;11.026;2023-05-24T04:00:11;13.50;;;3.53;;
29280;SDS011;25048;49.590;11.026;2023-05-24T04:02:38;12.93;;;3.60;;
29280;SDS011;25048;49.590;11.026;2023-05-24T04:05:06;9.47;;;3.40;;
29280;SDS011;25048;49.590;11.026;2023-05-24T04:07:38;13.40;;;4.13;;
29280;SDS011;25048;49.590;11.026;2023-05-24T04:10:07;9.87;;;3.60;;
29280;SDS011;25048;49.590;11.026;2023-05-24T04:12:35;11.60;;;3.43;;
29280;SDS011;25048;49.590;11.026;2023-05-24T04:15:02;9.13;;;3.67;;
29280;SDS011;25048;49.590;11.026;2023-05-24T04:17:30;13.47;;;3.97;;
29280;SDS011;25048;49.590;11.026;2023-05-24T04:19:59;8.23;;;3.37;;
29280;SDS011;25048;49.590;11.026;2023-05-24T04:22:28;9.47;;;2.97;;
29280;SDS011;25048;49.590;11.026;2023-05-24T04:24:56;14.93;;;3.50;;
29280;SDS011;25048;49.590;11.026;2023-05-24T04:27:23;10.03;;;3.77;;
29280;SDS011;25048;49.590;11.026;2023-05-24T04:29:52;8.70;;;3.43;;
29280;SDS011;25048;49.590;11.026;2023-05-24T04:32:19;11.17;;;3.67;;
29280;SDS011;25048;49.590;11.026;2023-05-24T04:34:48;9.20;;;3.33;;
29280;SDS011;25048;49.590;11.026;2023-05-24T04:37:17;5.90;;;3.27;;
29280;SDS011;25048;49.590;11.026;2023-05-24T04:39:44;10.93;;;3.83;;
29280;SDS011;25048;49.590;11.026;2023-05-24T04:42:12;11.03;;;3.87;;
29280;SDS011;25048;49.590;11.026;2023-05-24T04:44:39;11.50;;;3.57;;
29280;SDS011;25048;49.590;11.026;2023-05-24T04:47:07;9.43;;;3.30;;
29280;SDS011;25048;49.590;11.026;2023-05-24T04:49:35;10.60;;;3.37;;
29280;SDS011;25048;49.590;11.026;2023-05-24T04:52:03;6.07;;;2.93;;
29280;SDS011;25048;49.590;11.026;2023-05-24T04:54:32;10.00;;;2.80;;
29280;SDS011;25048;49.590;11.026;2023-05-24T04:57:00;12.63;;;2.80;;
29280;SDS011;25048;49.590;11.026;2023-05-24T04:59:27;10.60;;;2.80;;
29280;SDS011;25048;49.590;11.026;2023-05-24T05:01:55;8.23;;;2.53;;
29280;SDS011;25048;49.590;11.026;2023-05-24T05:04:22;12.10;;;3.27;;
29280;SDS011;25048;49.590;11.026;2023-05-24T05:06:50;12.00;;;2.77;;
29280;SDS011;25048;49.590;11.026;2023-05-24T05:09:17;7.87;;;2.30;;
29280;SDS011;25048;49.590;11.026;2023-05-24T05:11:45;10.77;;;2.27;;
29280;SDS011;25048;49.590;11.026;2023-05-24T05:14:13;10.97;;;2.43;;
29280;SDS011;25048;49.590;11.026;2023-05-24T05:16:41;11.27;;;2.30;;
29280;SDS011;25048;49.590;11.026;2023-05-24T05:19:09;12.40;;;2.53;;
29280;SDS011;25048;49.590;11.026;2023-05-24T05:21:37;9.43;;;2.37;;
29280;SDS011;25048;49.590;11.026;2023-05-24T05:24:04;12.97;;;2.33;;
29280;SDS011;25048;49.590;11.026;2023-05-24T05:26:32;11.40;;;2.50;;
29280;SDS011;25048;49.590;11.026;2023-05-24T05:29:00;7.00;;;2.20;;
29280;SDS011;25048;49.590;11.026;2023-05-24T05:31:28;12.17;;;2.90;;
29280;SDS011;25048;49.590;11.026;2023-05-24T05:33:56;14.43;;;2.50;;
29280;SDS011;25048;49.590;11.026;2023-05-24T05:36:23;11.17;;;2.33;;
29280;SDS011;25048;49.590;11.026;2023-05-24T05:38:51;10.13;;;2.40;;
29280;SDS011;25048;49.590;11.026;2023-05-24T05:41:19;7.47;;;2.00;;
29280;SDS011;25048;49.590;11.026;2023-05-24T05:43:46;10.27;;;2.70;;
29280;SDS011;25048;49.590;11.026;2023-05-24T05:46:14;9.10;;;2.40;;
29280;SDS011;25048;49.590;11.026;2023-05-24T05:48:41;8.67;;;2.60;;
29280;SDS011;25048;49.590;11.026;2023-05-24T05:51:09;10.93;;;3.00;;
29280;SDS011;25048;49.590;11.026;2023-05-24T05:53:36;10.10;;;2.93;;
29280;SDS011;25048;49.590;11.026;2023-05-24T05:56:04;8.47;;;2.23;;
29280;SDS011;25048;49.590;11.026;2023-05-24T05:58:31;14.77;;;2.87;;
29280;SDS011;25048;49.590;11.026;2023-05-24T06:00:59;11.43;;;2.30;;
29280;SDS011;25048;49.590;11.026;2023-05-24T06:03:26;8.27;;;2.80;;
29280;SDS011;25048;49.590;11.026;2023-05-24T06:05:54;15.80;;;2.70;;
29280;SDS011;25048;49.590;11.026;2023-05-24T06:08:21;13.30;;;2.67;;
29280;SDS011;25048;49.590;11.026;2023-05-24T06:10:49;8.93;;;2.30;;
29280;SDS011;25048;49.590;11.026;2023-05-24T06:13:16;9.80;;;2.20;;
29280;SDS011;25048;49.590;11.026;2023-05-24T06:15:44;12.70;;;2.80;;
29280;SDS011;25048;49.590;11.026;2023-05-24T06:18:12;4.97;;;1.90;;
29280;SDS011;25048;49.590;11.026;2023-05-24T06:20:40;9.17;;;2.40;;
29280;SDS011;25048;49.590;11.026;2023-05-24T06:23:09;5.03;;;2.10;;
29280;SDS011;25048;49.590;11.026;2023-05-24T06:25:36;7.23;;;2.33;;
29280;SDS011;25048;49.590;11.026;2023-05-24T06:28:05;10.07;;;2.63;;
29280;SDS011;25048;49.590;11.026;2023-05-24T06:30:32;12.20;;;2.63;;
29280;SDS011;25048;49.590;11.026;2023-05-24T06:33:00;12.50;;;3.00;;
29280;SDS011;25048;49.590;11.026;2023-05-24T06:35:28;9.73;;;2.67;;
29280;SDS011;25048;49.590;11.026;2023-05-24T06:37:55;12.60;;;2.93;;
29280;SDS011;25048;49.590;11.026;2023-05-24T06:40:23;7.13;;;2.07;;
29280;SDS011;25048;49.590;11.026;2023-05-24T06:42:50;14.40;;;2.80;;
29280;SDS011;25048;49.590;11.026;2023-05-24T06:45:18;9.87;;;2.07;;
29280;SDS011;25048;49.590;11.026;2023-05-24T06:47:45;11.40;;;2.10;;
29280;SDS011;25048;49.590;11.026;2023-05-24T06:50:13;8.80;;;2.13;;
29280;SDS011;25048;49.590;11.026;2023-05-24T06:52:41;8.47;;;1.87;;
29280;SDS011;25048;49.590;11.026;2023-05-24T06:55:09;9.97;;;2.43;;
29280;SDS011;25048;49.590;11.026;2023-05-24T06:57:36;7.90;;;3.07;;
29280;SDS011;25048;49.590;11.026;2023-05-24T07:00:04;11.50;;;2.63;;
29280;SDS011;25048;49.590;11.026;2023-05-24T07:02:34;12.93;;;2.70;;
29280;SDS011;25048;49.590;11.026;2023-05-24T07:05:01;11.03;;;3.00;;
29280;SDS011;25048;49.590;11.026;2023-05-24T07:07:29;8.63;;;1.93;;
29280;SDS011;25048;49.590;11.026;2023-05-24T07:09:57;11.73;;;2.13;;
29280;SDS011;25048;49.590;11.026;2023-05-24T07:12:24;14.50;;;2.57;;
29280;SDS011;25048;49.590;11.026;2023-05-24T07:14:52;10.27;;;2.10;;
29280;SDS011;25048;49.590;11.026;2023-05-24T07:17:20;12.33;;;2.83;;
29280;SDS011;25048;49.590;11.026;2023-05-24T07:19:48;15.57;;;2.80;;
29280;SDS011;25048;49.590;11.026;2023-05-24T07:22:16;9.37;;;2.60;;
29280;SDS011;25048;49.590;11.026;2023-05-24T07:24:43;17.33;;;2.67;;
29280;SDS011;25048;49.590;11.026;2023-05-24T07:27:11;14.73;;;2.73;;
29280;SDS011;25048;49.590;11.026;2023-05-24T07:29:38;5.23;;;2.23;;
29280;SDS011;25048;49.590;11.026;2023-05-24T07:32:06;7.07;;;2.20;;
29280;SDS011;25048;49.590;11.026;2023-05-24T07:34:33;8.97;;;2.00;;
29280;SDS011;25048;49.590;11.026;2023-05-24T07:37:01;9.67;;;2.30;;
29280;SDS011;25048;49.590;11.026;2023-05-24T07:39:29;7.37;;;2.27;;
29280;SDS011;25048;49.590;11.026;2023-05-24T07:41:56;13.20;;;2.37;;
29280;SDS011;25048;49.590;11.026;2023-05-24T07:44:24;11.00;;;2.60;;
29280;SDS011;25048;49.590;11.026;2023-05-24T07:46:51;12.90;;;2.80;;
29280;SDS011;25048;49.590;11.026;2023-05-24T07:49:20;8.00;;;2.00;;
29280;SDS011;25048;49.590;11.026;2023-05-24T07:51:47;10.97;;;2.40;;
29280;SDS011;25048;49.590;11.026;2023-05-24T07:54:15;9.50;;;2.90;;
29280;SDS011;25048;49.590;11.026;2023-05-24T07:56:42;9.67;;;2.10;;
29280;SDS011;25048;49.590;11.026;2023-05-24T07:59:10;12.83;;;3.40;;
29280;SDS011;25048;49.590;11.026;2023-05-24T08:01:37;9.00;;;2.33;;
29280;SDS011;25048;49.590;11.026;2023-05-24T08:04:05;14.23;;;2.73;;
29280;SDS011;25048;49.590;11.026;2023-05-24T08:06:34;12.73;;;3.30;;
29280;SDS011;25048;49.590;11.026;2023-05-24T08:09:02;12.33;;;2.63;;
29280;SDS011;25048;49.590;11.026;2023-05-24T08:11:30;16.67;;;3.13;;
29280;SDS011;25048;49.590;11.026;2023-05-24T08:13:57;7.27;;;2.33;;
29280;SDS011;25048;49.590;11.026;2023-05-24T08:16:25;6.07;;;2.03;;
29280;SDS011;25048;49.590;11.026;2023-05-24T08:18:52;8.57;;;2.60;;
29280;SDS011;25048;49.590;11.026;2023-05-24T08:21:20;10.97;;;2.83;;
29280;SDS011;25048;49.590;11.026;2023-05-24T08:23:48;12.87;;;2.57;;
29280;SDS011;25048;49.590;11.026;2023-05-24T08:26:15;16.77;;;4.37;;
29280;SDS011;25048;49.590;11.026;2023-05-24T08:28:45;11.30;;;3.17;;
29280;SDS011;25048;49.590;11.026;2023-05-24T08:31:12;13.93;;;2.30;;
29280;SDS011;25048;49.590;11.026;2023-05-24T08:33:41;7.33;;;2.37;;
29280;SDS011;25048;49.590;11.026;2023-05-24T08:36:08;11.40;;;2.77;;
29280;SDS011;25048;49.590;11.026;2023-05-24T08:38:36;9.00;;;2.50;;
29280;SDS011;25048;49.590;11.026;2023-05-24T08:41:04;13.70;;;2.83;;
29280;SDS011;25048;49.590;11.026;2023-05-24T08:43:33;14.27;;;2.70;;
29280;SDS011;25048;49.590;11.026;2023-05-24T08:46:02;12.20;;;2.57;;
29280;SDS011;25048;49.590;11.026;2023-05-24T08:48:31;11.47;;;2.50;;
29280;SDS011;25048;49.590;11.026;2023-05-24T08:51:00;8.30;;;2.83;;
29280;SDS011;25048;49.590;11.026;2023-05-24T08:53:28;14.40;;;2.57;;
29280;SDS011;25048;49.590;11.026;2023-05-24T08:55:57;8.90;;;2.90;;
29280;SDS011;25048;49.590;11.026;2023-05-24T08:58:26;8.77;;;3.30;;
29280;SDS011;25048;49.590;11.026;2023-05-24T09:00:55;10.03;;;2.27;;
29280;SDS011;25048;49.590;11.026;2023-05-24T09:03:23;5.87;;;2.47;;
29280;SDS011;25048;49.590;11.026;2023-05-24T09:05:52;9.23;;;2.50;;
29280;SDS011;25048;49.590;11.026;2023-05-24T09:08:19;14.70;;;3.03;;
29280;SDS011;25048;49.590;11.026;2023-05-24T09:10:47;12.67;;;3.13;;
29280;SDS011;25048;49.590;11.026;2023-05-24T09:13:15;8.17;;;2.70;;
29280;SDS011;25048;49.590;11.026;2023-05-24T09:15:44;12.43;;;2.57;;
29280;SDS011;25048;49.590;11.026;2023-05-24T09:18:12;10.17;;;2.87;;
29280;SDS011;25048;49.590;11.026;2023-05-24T09:20:39;13.67;;;2.43;;
29280;SDS011;25048;49.590;11.026;2023-05-24T09:23:07;9.57;;;2.43;;
29280;SDS011;25048;49.590;11.026;2023-05-24T09:25:34;10.60;;;2.90;;
29280;SDS011;25048;49.590;11.026;2023-05-24T09:28:05;12.03;;;2.60;;
29280;SDS011;25048;49.590;11.026;2023-05-24T09:30:34;7.07;;;2.53;;
29280;SDS011;25048;49.590;11.026;2023-05-24T09:33:02;10.07;;;3.07;;
29280;SDS011;25048;49.590;11.026;2023-05-24T09:35:31;10.60;;;2.50;;
29280;SDS011;25048;49.590;11.026;2023-05-24T09:37:59;12.83;;;2.60;;
29280;SDS011;25048;49.590;11.026;2023-05-24T09:40:27;8.23;;;2.67;;
29280;SDS011;25048;49.590;11.026;2023-05-24T09:43:04;9.77;;;2.70;;
29280;SDS011;25048;49.590;11.026;2023-05-24T09:45:39;13.77;;;2.97;;
29280;SDS011;25048;49.590;11.026;2023-05-24T09:48:11;8.90;;;2.27;;
29280;SDS011;25048;49.590;11.026;2023-05-24T09:50:40;8.30;;;2.70;;
29280;SDS011;25048;49.590;11.026;2023-05-24T09:53:07;9.90;;;2.63;;
29280;SDS011;25048;49.590;11.026;2023-05-24T09:55:35;10.60;;;2.67;;
29280;SDS011;25048;49.590;11.026;2023-05-24T09:58:07;10.10;;;2.30;;
29280;SDS011;25048;49.590;11.026;2023-05-24T10:00:39;9.07;;;2.47;;
29280;SDS011;25048;49.590;11.026;2023-05-24T10:03:08;8.70;;;2.23;;
29280;SDS011;25048;49.590;11.026;2023-05-24T10:05:37;9.97;;;2.87;;
29280;SDS011;25048;49.590;11.026;2023-05-24T10:08:06;9.03;;;2.97;;
29280;SDS011;25048;49.590;11.026;2023-05-24T10:10:35;14.43;;;3.03;;
29280;SDS011;25048;49.590;11.026;2023-05-24T10:13:03;6.42;;;2.50;;
29280;SDS011;25048;49.590;11.026;2023-05-24T10:15:31;9.70;;;3.20;;
29280;SDS011;25048;49.590;11.026;2023-05-24T10:17:58;9.77;;;3.03;;
29280;SDS011;25048;49.590;11.026;2023-05-24T10:20:27;7.47;;;2.67;;
29280;SDS011;25048;49.590;11.026;2023-05-24T10:22:57;16.93;;;2.85;;
29280;SDS011;25048;49.590;11.026;2023-05-24T10:25:28;11.88;;;2.77;;
29280;SDS011;25048;49.590;11.026;2023-05-24T10:27:59;7.80;;;2.65;;
29280;SDS011;25048;49.590;11.026;2023-05-24T10:30:40;5.05;;;3.30;;
29280;SDS011;25048;49.590;11.026;2023-05-24T10:33:03;7.50;;;2.83;;
29280;SDS011;25048;49.590;11.026;2023-05-24T10:35:33;7.15;;;2.47;;
29280;SDS011;25048;49.590;11.026;2023-05-24T10:38:06;8.08;;;2.87;;
29280;SDS011;25048;49.590;11.026;2023-05-24T10:40:34;8.70;;;2.45;;
29280;SDS011;25048;49.590;11.026;2023-05-24T10:43:03;9.75;;;2.90;;
29280;SDS011;25048;49.590;11.026;2023-05-24T10:45:35;8.48;;;2.70;;
29280;SDS011;25048;49.590;11.026;2023-05-24T10:50:43;10.43;;;2.67;;
29280;SDS011;25048;49.590;11.026;2023-05-24T10:53:17;8.88;;;2.52;;
29280;SDS011;25048;49.590;11.026;2023-05-24T10:55:50;10.48;;;3.15;;
29280;SDS011;25048;49.590;11.026;2023-05-24T10:58:21;9.75;;;2.60;;
29280;SDS011;25048;49.590;11.026;2023-05-24T11:00:57;10.82;;;2.62;;
29280;SDS011;25048;49.590;11.026;2023-05-24T11:03:25;8.23;;;2.25;;
29280;SDS011;25048;49.590;11.026;2023-05-24T11:06:00;11.45;;;3.17;;
29280;SDS011;25048;49.590;11.026;2023-05-24T11:08:31;8.48;;;2.50;;
29280;SDS011;25048;49.590;11.026;2023-05-24T11:11:02;5.45;;;2.52;;
29280;SDS011;25048;49.590;11.026;2023-05-24T11:13:41;8.38;;;2.80;;
29280;SDS011;25048;49.590;11.026;2023-05-24T11:16:05;6.80;;;2.00;;
29280;SDS011;25048;49.590;11.026;2023-05-24T11:18:33;6.78;;;2.12;;
29280;SDS011;25048;49.590;11.026;2023-05-24T11:21:05;8.13;;;2.20;;
29280;SDS011;25048;49.590;11.026;2023-05-24T11:23:32;7.37;;;2.00;;
29280;SDS011;25048;49.590;11.026;2023-05-24T11:26:01;7.53;;;2.17;;
29280;SDS011;25048;49.590;11.026;2023-05-24T11:28:29;7.47;;;2.55;;
29280;SDS011;25048;49.590;11.026;2023-05-24T11:30:57;9.43;;;2.10;;
29280;SDS011;25048;49.590;11.026;2023-05-24T11:33:28;7.65;;;2.33;;
29280;SDS011;25048;49.590;11.026;2023-05-24T11:35:55;11.93;;;2.37;;
29280;SDS011;25048;49.590;11.026;2023-05-24T11:38:23;6.65;;;2.47;;
29280;SDS011;25048;49.590;11.026;2023-05-24T11:40:52;7.25;;;3.30;;
29280;SDS011;25048;49.590;11.026;2023-05-24T11:43:19;7.85;;;2.00;;
29280;SDS011;25048;49.590;11.026;2023-05-24T11:45:47;7.67;;;2.85;;
29280;SDS011;25048;49.590;11.026;2023-05-24T11:48:16;11.10;;;2.42;;
29280;SDS011;25048;49.590;11.026;2023-05-24T11:50:47;7.00;;;2.30;;
29280;SDS011;25048;49.590;11.026;2023-05-24T11:53:15;7.00;;;3.12;;
29280;SDS011;25048;49.590;11.026;2023-05-24T11:55:44;10.98;;;3.22;;
29280;SDS011;25048;49.590;11.026;2023-05-24T11:58:16;8.50;;;2.22;;
29280;SDS011;25048;49.590;11.026;2023-05-24T12:00:44;5.72;;;2.50;;
29280;SDS011;25048;49.590;11.026;2023-05-24T12:03:13;7.65;;;2.10;;
29280;SDS011;25048;49.590;11.026;2023-05-24T12:05:41;9.40;;;2.87;;
29280;SDS011;25048;49.590;11.026;2023-05-24T12:08:12;6.83;;;2.08;;
29280;SDS011;25048;49.590;11.026;2023-05-24T12:10:41;7.75;;;2.10;;
29280;SDS011;25048;49.590;11.026;2023-05-24T12:13:22;9.28;;;2.40;;
29280;SDS011;25048;49.590;11.026;2023-05-24T12:15:54;7.50;;;2.02;;
29280;SDS011;25048;49.590;11.026;2023-05-24T12:18:23;5.72;;;3.08;;
29280;SDS011;25048;49.590;11.026;2023-05-24T12:20:52;10.93;;;2.77;;
29280;SDS011;25048;49.590;11.026;2023-05-24T12:23:26;4.47;;;2.33;;
29280;SDS011;25048;49.590;11.026;2023-05-24T12:25:58;5.53;;;2.05;;
29280;SDS011;25048;49.590;11.026;2023-05-24T12:28:30;9.35;;;2.70;;
29280;SDS011;25048;49.590;11.026;2023-05-24T12:31:07;6.95;;;2.12;;
29280;SDS011;25048;49.590;11.026;2023-05-24T12:33:35;5.87;;;2.90;;
29280;SDS011;25048;49.590;11.026;2023-05-24T12:36:04;7.00;;;2.52;;
29280;SDS011;25048;49.590;11.026;2023-05-24T12:38:32;6.90;;;2.30;;
29280;SDS011;25048;49.590;11.026;2023-05-24T12:41:01;6.53;;;2.17;;
29280;SDS011;25048;49.590;11.026;2023-05-24T12:43:28;5.83;;;1.92;;
29280;SDS011;25048;49.590;11.026;2023-05-24T12:45:56;8.10;;;2.20;;
29280;SDS011;25048;49.590;11.026;2023-05-24T12:48:26;11.65;;;3.85;;
29280;SDS011;25048;49.590;11.026;2023-05-24T12:50:56;7.92;;;2.50;;
29280;SDS011;25048;49.590;11.026;2023-05-24T12:53:24;7.97;;;2.35;;
29280;SDS011;25048;49.590;11.026;2023-05-24T12:55:51;7.15;;;2.55;;
29280;SDS011;25048;49.590;11.026;2023-05-24T12:58:21;6.22;;;2.20;;
29280;SDS011;25048;49.590;11.026;2023-05-24T13:00:48;6.40;;;2.25;;
29280;SDS011;25048;49.590;11.026;2023-05-24T13:03:16;5.70;;;2.00;;
29280;SDS011;25048;49.590;11.026;2023-05-24T13:05:44;6.03;;;2.17;;
29280;SDS011;25048;49.590;11.026;2023-05-24T13:08:12;10.78;;;2.50;;
29280;SDS011;25048;49.590;11.026;2023-05-24T13:10:39;9.93;;;3.00;;
29280;SDS011;25048;49.590;11.026;2023-05-24T13:13:06;6.70;;;2.25;;
29280;SDS011;25048;49.590;11.026;2023-05-24T13:15:34;8.28;;;2.35;;
29280;SDS011;25048;49.590;11.026;2023-05-24T13:18:02;5.37;;;1.90;;
29280;SDS011;25048;49.590;11.026;2023-05-24T13:20:30;4.28;;;1.87;;
29280;SDS011;25048;49.590;11.026;2023-05-24T13:22:58;5.78;;;1.98;;
29280;SDS011;25048;49.590;11.026;2023-05-24T13:25:26;5.72;;;2.58;;
29280;SDS011;25048;49.590;11.026;2023-05-24T13:27:54;11.93;;;3.08;;
29280;SDS011;25048;49.590;11.026;2023-05-24T13:30:22;6.25;;;1.90;;
29280;SDS011;25048;49.590;11.026;2023-05-24T13:32:51;6.87;;;1.55;;
29280;SDS011;25048;49.590;11.026;2023-05-24T13:35:24;6.78;;;1.82;;
29280;SDS011;25048;49.590;11.026;2023-05-24T13:37:51;5.87;;;2.02;;
29280;SDS011;25048;49.590;11.026;2023-05-24T13:40:20;6.60;;;1.95;;
29280;SDS011;25048;49.590;11.026;2023-05-24T13:42:50;4.35;;;1.67;;
29280;SDS011;25048;49.590;11.026;2023-05-24T13:45:18;7.95;;;1.98;;
29280;SDS011;25048;49.590;11.026;2023-05-24T13:47:46;8.50;;;1.98;;
29280;SDS011;25048;49.590;11.026;2023-05-24T13:50:13;4.62;;;1.50;;
29280;SDS011;25048;49.590;11.026;2023-05-24T13:52:41;7.10;;;1.95;;
29280;SDS011;25048;49.590;11.026;2023-05-24T13:55:09;4.85;;;2.10;;
29280;SDS011;25048;49.590;11.026;2023-05-24T13:57:37;7.00;;;1.77;;
29280;SDS011;25048;49.590;11.026;2023-05-24T14:00:05;7.80;;;2.17;;
29280;SDS011;25048;49.590;11.026;2023-05-24T14:02:34;8.28;;;2.00;;
29280;SDS011;25048;49.590;11.026;2023-05-24T14:05:01;4.60;;;1.52;;
29280;SDS011;25048;49.590;11.026;2023-05-24T14:07:29;11.28;;;2.27;;
29280;SDS011;25048;49.590;11.026;2023-05-24T14:09:56;12.00;;;2.10;;
29280;SDS011;25048;49.590;11.026;2023-05-24T14:12:24;6.67;;;1.82;;
29280;SDS011;25048;49.590;11.026;2023-05-24T14:14:52;5.42;;;1.65;;
29280;SDS011;25048;49.590;11.026;2023-05-24T14:17:19;6.05;;;1.65;;
29280;SDS011;25048;49.590;11.026;2023-05-24T14:19:47;4.28;;;1.60;;
29280;SDS011;25048;49.590;11.026;2023-05-24T14:22:15;6.58;;;1.70;;
29280;SDS011;25048;49.590;11.026;2023-05-24T14:24:42;5.33;;;1.72;;
29280;SDS011;25048;49.590;11.026;2023-05-24T14:27:10;4.72;;;1.60;;
29280;SDS011;25048;49.590;11.026;2023-05-24T14:29:37;6.10;;;2.17;;
29280;SDS011;25048;49.590;11.026;2023-05-24T14:32:05;4.80;;;2.15;;
29280;SDS011;25048;49.590;11.026;2023-05-24T14:34:33;6.90;;;1.60;;
29280;SDS011;25048;49.590;11.026;2023-05-24T14:37:01;7.28;;;1.92;;
29280;SDS011;25048;49.590;11.026;2023-05-24T14:39:29;3.47;;;2.17;;
29280;SDS011;25048;49.590;11.026;2023-05-24T14:41:56;8.90;;;2.40;;
29280;SDS011;25048;49.590;11.026;2023-05-24T14:44:24;9.73;;;2.08;;
29280;SDS011;25048;49.590;11.026;2023-05-24T14:46:52;5.97;;;2.30;;
29280;SDS011;25048;49.590;11.026;2023-05-24T14:49:20;6.70;;;2.00;;
29280;SDS011;25048;49.590;11.026;2023-05-24T14:51:48;4.10;;;1.65;;